Time;durP1;ratioP1;P1;durP2;ratioP2;P2;SDS_P1;SDS_P2;PMS_P1;PMS_P2;Temp;Humidity;BMP_temperature;BMP_pressure;BME280_temperature;BME280_humidity;BME280_pressure;Samples;Min_cycle;Max_cycle;Signal;HPM_P1;HPM_P2
2023/11/25 00:00:16;;;;;;;;;;;;;;;;;;2217656;66;1251;-23
2023/11/25 00:02:50;;;;;;;;;;;;;;;;;;2218599;58;2240;-24
2023/11/25 00:05:29;;;;;;;;;;;;;;;;;;2215461;66;1723;-24
2023/11/25 00:07:59;;;;;;;;;;;;;;;;;;2219457;66;1211;-23
2023/11/25 00:10:30;;;;;;;;;;;;;;;;;;2218488;58;1655;-23
2023/11/25 00:13:01;;;;;;;;;;;;;;;;;;2218228;58;1229;-24
2023/11/25 00:15:32;;;;;;;;;;;;;;;;;;2217657;58;2083;-23
2023/11/25 00:18:03;;;;;;;;;;;;;;;;;;2218444;58;2066;-23
2023/11/25 00:20:36;;;;;;;;;;;;;;;;;;2219343;66;1740;-23
2023/11/25 00:23:08;;;;;;;;;;;;;;;;;;2219924;58;1994;-23
2023/11/25 00:25:40;;;;;;;;;;;;;;;;;;2215978;66;1070;-23
2023/11/25 00:28:10;;;;;;;;;;;;;;;;;;2213316;66;1680;-23
2023/11/25 00:30:42;;;;;;;;;;;;;;;;;;2216700;66;1696;-23
2023/11/25 00:33:13;;;;;;;;;;;;;;;;;;2216269;58;1256;-23
2023/11/25 00:35:43;;;;;;;;;;;;;;;;;;2214854;66;1805;-23
2023/11/25 00:38:14;;;;;;;;;;;;;;;;;;2215734;66;1625;-24
2023/11/25 00:40:44;;;;;;;;;;;;;;;;;;2214999;58;1656;-23
2023/11/25 00:43:15;;;;;;;;;;;;;;;;;;2218312;66;2006;-23
2023/11/25 00:45:49;;;;;;;;;;;;;;;;;;2214789;66;1276;-23
2023/11/25 00:48:21;;;;;;;;;;;;;;;;;;2218594;58;1225;-23
2023/11/25 00:50:51;;;;;;;;;;;;;;;;;;2217973;58;1282;-23
2023/11/25 00:53:26;;;;;;;;;;;;;;;;;;2218624;58;1400;-23
2023/11/25 00:55:56;;;;;;;;;;;;;;;;;;2215323;66;1164;-23
2023/11/25 00:58:27;;;;;;;;;;;;;;;;;;2219846;66;1667;-23
2023/11/25 01:00:59;;;;;;;;;;;;;;;;;;2212515;66;1731;-23
2023/11/25 01:03:30;;;;;;;;;;;;;;;;;;2214780;58;2458;-23
2023/11/25 01:06:06;;;;;;;;;;;;;;;;;;2214342;59;1552;-23
2023/11/25 01:08:37;;;;;;;;;;;;;;;;;;2217718;66;2114;-23
2023/11/25 01:11:07;;;;;;;;;;;;;;;;;;2218400;66;1293;-23
2023/11/25 01:13:38;;;;;;;;;;;;;;;;;;2219798;66;1579;-23
2023/11/25 01:16:16;;;;;;;;;;;;;;;;;;2215976;59;1500;-23
2023/11/25 01:18:51;;;;;;;;;;;;;;;;;;2218727;66;1220;-23
2023/11/25 01:21:22;;;;;;;;;;;;;;;;;;2218232;66;1244;-23
2023/11/25 01:23:53;;;;;;;;;;;;;;;;;;2218977;66;1941;-23
2023/11/25 01:26:24;;;;;;;;;;;;;;;;;;2219799;66;1142;-24
2023/11/25 01:28:55;;;;;;;;;;;;;;;;;;2217252;58;2324;-23
2023/11/25 01:31:29;;;;;;;;;;;;;;;;;;2220049;58;1836;-23
2023/11/25 01:33:59;;;;;;;;;;;;;;;;;;2219314;66;1806;-23
2023/11/25 01:36:30;;;;;;;;;;;;;;;;;;2219850;66;1511;-24
2023/11/25 01:39:00;;;;;;;;;;;;;;;;;;2221946;58;1213;-23
2023/11/25 01:41:30;;;;;;;;;;;;;;;;;;2222967;58;1389;-23
2023/11/25 01:44:03;;;;;;;;;;;;;;;;;;2220397;66;1944;-23
2023/11/25 01:46:42;;;;;;;;;;;;;;;;;;2220237;66;1161;-23
2023/11/25 01:49:16;;;;;;;;;;;;;;;;;;2219770;66;1901;-23
2023/11/25 01:51:50;;;;;;;;;;;;;;;;;;2219232;58;2307;-23
2023/11/25 01:54:21;;;;;;;;;;;;;;;;;;2220142;58;1237;-23
2023/11/25 01:56:54;;;;;;;;;;;;;;;;;;2219037;58;1303;-23
2023/11/25 01:59:25;;;;;;;;;;;;;;;;;;2220080;58;1640;-23
2023/11/25 02:05:22;;;;;;;;;;;;;;;;;;2217641;58;1571;-24
2023/11/25 02:07:53;;;;;;;;;;;;;;;;;;2216795;58;1094;-24
2023/11/25 02:10:24;;;;;;;;;;;;;;;;;;2216404;66;1236;-24
2023/11/25 02:12:56;;;;;;;;;;;;;;;;;;2212541;66;1368;-24
2023/11/25 02:15:26;;;;;;;;;;;;;;;;;;2217394;66;2112;-24
2023/11/25 02:17:56;;;;;;;;;;;;;;;;;;2215889;66;1528;-24
2023/11/25 02:20:30;;;;;;;;;;;;;;;;;;2217265;66;1225;-24
2023/11/25 02:23:01;;;;;;;;;;;;;;;;;;2212810;66;1953;-24
2023/11/25 02:25:32;;;;;;;;;;;;;;;;;;2214263;58;1825;-23
2023/11/25 02:28:04;;;;;;;;;;;;;;;;;;2213225;66;2093;-24
2023/11/25 02:30:34;;;;;;;;;;;;;;;;;;2214332;58;2294;-25
2023/11/25 02:33:06;;;;;;;;;;;;;;;;;;2216575;58;1374;-24
2023/11/25 02:35:37;;;;;;;;;;;;;;;;;;2210629;66;1311;-23
2023/11/25 02:38:07;;;;;;;;;;;;;;;;;;2213501;66;1187;-24
2023/11/25 02:40:38;;;;;;;;;;;;;;;;;;2214297;58;1578;-24
2023/11/25 02:43:08;;;;;;;;;;;;;;;;;;2212418;66;1986;-24
2023/11/25 02:45:39;;;;;;;;;;;;;;;;;;2213222;58;1637;-23
2023/11/25 02:48:09;;;;;;;;;;;;;;;;;;2213087;66;1324;-23
2023/11/25 02:50:39;;;;;;;;;;;;;;;;;;2213697;66;1655;-24
2023/11/25 02:53:10;;;;;;;;;;;;;;;;;;2214315;58;1596;-24
2023/11/25 02:55:40;;;;;;;;;;;;;;;;;;2216937;66;1414;-24
2023/11/25 02:58:11;;;;;;;;;;;;;;;;;;2213000;66;1327;-24
2023/11/25 03:00:43;;;;;;;;;;;;;;;;;;2214416;66;1588;-24
2023/11/25 03:03:16;;;;;;;;;;;;;;;;;;2216823;58;2328;-23
2023/11/25 03:05:49;;;;;;;;;;;;;;;;;;2213627;59;1383;-23
2023/11/25 03:08:22;;;;;;;;;;;;;;;;;;2213216;66;1692;-24
2023/11/25 03:10:52;;;;;;;;;;;;;;;;;;2216084;66;1523;-24
2023/11/25 03:13:23;;;;;;;;;;;;;;;;;;2216715;66;1826;-24
2023/11/25 03:15:54;;;;;;;;;;;;;;;;;;2216918;58;1286;-23
2023/11/25 03:18:26;;;;;;;;;;;;;;;;;;2217009;66;1240;-23
2023/11/25 03:20:56;;;;;;;;;;;;;;;;;;2212912;66;1307;-23
2023/11/25 03:23:27;;;;;;;;;;;;;;;;;;2210442;60;1933;-24
2023/11/25 03:25:57;;;;;;;;;;;;;;;;;;2216049;58;1449;-24
2023/11/25 03:28:27;;;;;;;;;;;;;;;;;;2216948;58;2129;-23
2023/11/25 03:31:04;;;;;;;;;;;;;;;;;;2216816;58;2538;-23
2023/11/25 03:33:34;;;;;;;;;;;;;;;;;;2218033;58;1259;-23
2023/11/25 03:36:04;;;;;;;;;;;;;;;;;;2217177;66;1633;-23
2023/11/25 03:38:35;;;;;;;;;;;;;;;;;;2216718;58;1362;-23
2023/11/25 03:41:06;;;;;;;;;;;;;;;;;;2213528;59;1336;-23
2023/11/25 03:43:36;;;;;;;;;;;;;;;;;;2216498;58;1939;-23
2023/11/25 03:46:06;;;;;;;;;;;;;;;;;;2213831;66;1122;-24
2023/11/25 03:48:36;;;;;;;;;;;;;;;;;;2216643;58;1723;-24
2023/11/25 03:51:10;;;;;;;;;;;;;;;;;;2216493;66;1300;-24
2023/11/25 03:53:40;;;;;;;;;;;;;;;;;;2209816;59;1676;-24
2023/11/25 03:56:13;;;;;;;;;;;;;;;;;;2216284;66;1240;-25
2023/11/25 03:58:43;;;;;;;;;;;;;;;;;;2213415;66;1798;-25
2023/11/25 04:01:15;;;;;;;;;;;;;;;;;;2212869;66;1394;-25
2023/11/25 04:03:45;;;;;;;;;;;;;;;;;;2217252;58;2108;-25
2023/11/25 04:06:15;;;;;;;;;;;;;;;;;;2212481;66;1920;-25
2023/11/25 04:08:46;;;;;;;;;;;;;;;;;;2217719;66;1167;-25
2023/11/25 04:11:17;;;;;;;;;;;;;;;;;;2212788;66;1202;-25
2023/11/25 04:13:48;;;;;;;;;;;;;;;;;;2214271;66;1621;-25
2023/11/25 04:16:18;;;;;;;;;;;;;;;;;;2212365;58;1283;-25
2023/11/25 04:18:48;;;;;;;;;;;;;;;;;;2213521;66;1217;-25
2023/11/25 04:21:22;;;;;;;;;;;;;;;;;;2216044;59;1664;-25
2023/11/25 04:23:55;;;;;;;;;;;;;;;;;;2216384;66;2004;-25
2023/11/25 04:26:25;;;;;;;;;;;;;;;;;;2213854;66;1321;-25
2023/11/25 04:28:55;;;;;;;;;;;;;;;;;;2216458;58;2403;-25
2023/11/25 04:31:26;;;;;;;;;;;;;;;;;;2214539;59;1241;-25
2023/11/25 04:33:57;;;;;;;;;;;;;;;;;;2217196;66;1496;-25
2023/11/25 04:36:28;;;;;;;;;;;;;;;;;;2211078;66;1379;-25
2023/11/25 04:38:59;;;;;;;;;;;;;;;;;;2213765;66;1572;-25
2023/11/25 04:41:30;;;;;;;;;;;;;;;;;;2217373;58;1312;-25
2023/11/25 04:44:01;;;;;;;;;;;;;;;;;;2213509;58;2048;-25
2023/11/25 04:46:31;;;;;;;;;;;;;;;;;;2213617;66;1859;-25
2023/11/25 04:49:01;;;;;;;;;;;;;;;;;;2216063;66;1491;-25
2023/11/25 04:51:34;;;;;;;;;;;;;;;;;;2217318;66;1408;-25
2023/11/25 04:54:04;;;;;;;;;;;;;;;;;;2217045;66;1952;-25
2023/11/25 04:56:35;;;;;;;;;;;;;;;;;;2214075;66;1574;-25
2023/11/25 04:59:06;;;;;;;;;;;;;;;;;;2217110;66;1182;-25
2023/11/25 05:01:37;;;;;;;;;;;;;;;;;;2216574;66;1261;-25
2023/11/25 05:04:07;;;;;;;;;;;;;;;;;;2213776;58;2197;-25
2023/11/25 05:06:37;;;;;;;;;;;;;;;;;;2211332;66;1195;-25
2023/11/25 05:09:07;;;;;;;;;;;;;;;;;;2217073;66;1283;-25
2023/11/25 05:11:38;;;;;;;;;;;;;;;;;;2218099;59;1484;-25
2023/11/25 05:14:08;;;;;;;;;;;;;;;;;;2216873;58;1220;-25
2023/11/25 05:16:38;;;;;;;;;;;;;;;;;;2216681;66;1582;-25
2023/11/25 05:19:09;;;;;;;;;;;;;;;;;;2216998;66;1339;-25
2023/11/25 05:21:40;;;;;;;;;;;;;;;;;;2213560;66;1233;-25
2023/11/25 05:24:10;;;;;;;;;;;;;;;;;;2216822;66;1937;-25
2023/11/25 05:26:41;;;;;;;;;;;;;;;;;;2214139;66;1380;-24
2023/11/25 05:29:11;;;;;;;;;;;;;;;;;;2213549;58;2255;-24
2023/11/25 05:31:41;;;;;;;;;;;;;;;;;;2211650;58;1298;-24
2023/11/25 05:34:12;;;;;;;;;;;;;;;;;;2217230;66;1322;-24
2023/11/25 05:36:43;;;;;;;;;;;;;;;;;;2218139;66;1269;-25
2023/11/25 05:39:14;;;;;;;;;;;;;;;;;;2218292;58;1313;-24
2023/11/25 05:41:44;;;;;;;;;;;;;;;;;;2219363;59;1314;-24
2023/11/25 05:44:14;;;;;;;;;;;;;;;;;;2218400;58;1943;-24
2023/11/25 05:46:44;;;;;;;;;;;;;;;;;;2218198;66;1175;-25
2023/11/25 05:49:15;;;;;;;;;;;;;;;;;;2217895;66;1135;-25
2023/11/25 05:51:45;;;;;;;;;;;;;;;;;;2214317;66;1818;-25
2023/11/25 05:54:16;;;;;;;;;;;;;;;;;;2216050;58;1174;-25
2023/11/25 05:56:50;;;;;;;;;;;;;;;;;;2216029;66;1260;-25
2023/11/25 05:59:21;;;;;;;;;;;;;;;;;;2215731;66;1307;-25
2023/11/25 06:01:53;;;;;;;;;;;;;;;;;;2216515;58;2360;-24
2023/11/25 06:04:23;;;;;;;;;;;;;;;;;;2211986;66;1995;-24
2023/11/25 06:06:54;;;;;;;;;;;;;;;;;;2216719;66;2099;-25
2023/11/25 06:09:24;;;;;;;;;;;;;;;;;;2212235;66;1784;-24
2023/11/25 06:11:55;;;;;;;;;;;;;;;;;;2216920;66;1315;-25
2023/11/25 06:14:26;;;;;;;;;;;;;;;;;;2208861;66;1244;-24
2023/11/25 06:16:57;;;;;;;;;;;;;;;;;;2216078;66;1464;-24
2023/11/25 06:19:29;;;;;;;;;;;;;;;;;;2215801;59;1107;-24
2023/11/25 06:22:01;;;;;;;;;;;;;;;;;;2216491;66;1291;-24
2023/11/25 06:24:31;;;;;;;;;;;;;;;;;;2216872;66;2063;-25
2023/11/25 06:27:01;;;;;;;;;;;;;;;;;;2212632;66;1348;-24
2023/11/25 06:29:32;;;;;;;;;;;;;;;;;;2217411;58;2301;-24
2023/11/25 06:32:02;;;;;;;;;;;;;;;;;;2217186;58;1277;-24
2023/11/25 06:34:32;;;;;;;;;;;;;;;;;;2213418;66;1286;-24
2023/11/25 06:37:03;;;;;;;;;;;;;;;;;;2216558;66;1267;-25
2023/11/25 06:39:33;;;;;;;;;;;;;;;;;;2217304;58;1268;-25
2023/11/25 06:42:07;;;;;;;;;;;;;;;;;;2213293;59;1601;-25
2023/11/25 06:44:37;;;;;;;;;;;;;;;;;;2213604;58;1945;-25
2023/11/25 06:47:07;;;;;;;;;;;;;;;;;;2215651;66;1199;-25
2023/11/25 06:49:38;;;;;;;;;;;;;;;;;;2216552;66;1596;-25
2023/11/25 06:52:08;;;;;;;;;;;;;;;;;;2214196;58;1952;-25
2023/11/25 06:54:39;;;;;;;;;;;;;;;;;;2214410;66;2259;-25
2023/11/25 06:57:09;;;;;;;;;;;;;;;;;;2216918;66;1040;-24
2023/11/25 06:59:44;;;;;;;;;;;;;;;;;;2216273;66;1371;-25
2023/11/25 07:02:15;;;;;;;;;;;;;;;;;;2216427;59;2287;-25
2023/11/25 07:04:45;;;;;;;;;;;;;;;;;;2214063;66;2157;-25
2023/11/25 07:07:15;;;;;;;;;;;;;;;;;;2214199;66;1922;-25
2023/11/25 07:09:46;;;;;;;;;;;;;;;;;;2213451;66;1784;-24
2023/11/25 07:12:16;;;;;;;;;;;;;;;;;;2216176;66;2150;-25
2023/11/25 07:14:46;;;;;;;;;;;;;;;;;;2216224;58;2217;-24
2023/11/25 07:17:16;;;;;;;;;;;;;;;;;;2212425;66;1670;-25
2023/11/25 07:19:47;;;;;;;;;;;;;;;;;;2213869;66;1233;-25
2023/11/25 07:22:17;;;;;;;;;;;;;;;;;;2215218;66;1247;-25
2023/11/25 07:24:47;;;;;;;;;;;;;;;;;;2212644;66;2002;-25
2023/11/25 07:27:18;;;;;;;;;;;;;;;;;;2212924;58;1594;-25
2023/11/25 07:29:49;;;;;;;;;;;;;;;;;;2213944;58;2253;-24
2023/11/25 07:32:20;;;;;;;;;;;;;;;;;;2213513;58;1340;-25
2023/11/25 07:34:50;;;;;;;;;;;;;;;;;;2216281;66;1269;-25
2023/11/25 07:37:20;;;;;;;;;;;;;;;;;;2210146;66;1894;-25
2023/11/25 07:39:51;;;;;;;;;;;;;;;;;;2216831;66;1289;-25
2023/11/25 07:42:21;;;;;;;;;;;;;;;;;;2213669;58;1602;-25
2023/11/25 07:44:51;;;;;;;;;;;;;;;;;;2217753;58;1935;-25
2023/11/25 07:47:22;;;;;;;;;;;;;;;;;;2215981;66;1191;-25
2023/11/25 07:49:52;;;;;;;;;;;;;;;;;;2216920;66;1072;-25
2023/11/25 07:52:22;;;;;;;;;;;;;;;;;;2213537;53;3706;-22
2023/11/25 07:54:52;;;;;;;;;;;;;;;;;;2203933;59;1741;-22
2023/11/25 07:57:22;;;;;;;;;;;;;;;;;;2205370;66;2309;-22
2023/11/25 07:59:53;;;;;;;;;;;;;;;;;;2209907;59;1851;-21
2023/11/25 08:02:24;;;;;;;;;;;;;;;;;;2204523;67;2493;-22
2023/11/25 08:04:54;;;;;;;;;;;;;;;;;;2200549;67;2550;-22
2023/11/25 08:07:24;;;;;;;;;;;;;;;;;;2203293;67;2684;-22
2023/11/25 08:09:56;;;;;;;;;;;;;;;;;;2204300;59;1832;-22
2023/11/25 08:12:26;;;;;;;;;;;;;;;;;;2199589;67;2173;-22
2023/11/25 08:14:57;;;;;;;;;;;;;;;;;;2204752;59;1796;-23
2023/11/25 08:17:29;;;;;;;;;;;;;;;;;;2203643;67;2994;-22
2023/11/25 08:20:00;;;;;;;;;;;;;;;;;;2204713;67;1737;-23
2023/11/25 08:22:30;;;;;;;;;;;;;;;;;;2203324;67;2083;-23
2023/11/25 08:25:05;;;;;;;;;;;;;;;;;;2200875;59;2110;-23
2023/11/25 08:27:39;;;;;;;;;;;;;;;;;;2202737;59;2610;-23
2023/11/25 08:30:09;;;;;;;;;;;;;;;;;;2202559;59;2361;-23
2023/11/25 08:32:43;;;;;;;;;;;;;;;;;;2203188;59;2179;-23
2023/11/25 08:35:13;;;;;;;;;;;;;;;;;;2201078;67;2302;-23
2023/11/25 08:37:44;;;;;;;;;;;;;;;;;;2203190;59;2187;-23
2023/11/25 08:40:21;;;;;;;;;;;;;;;;;;2203708;59;2273;-23
2023/11/25 08:42:51;;;;;;;;;;;;;;;;;;2203778;59;2154;-23
2023/11/25 08:45:24;;;;;;;;;;;;;;;;;;2203249;59;2543;-22
2023/11/25 08:47:54;;;;;;;;;;;;;;;;;;2200839;67;1938;-22
2023/11/25 08:50:24;;;;;;;;;;;;;;;;;;2202566;59;2419;-22
2023/11/25 08:52:54;;;;;;;;;;;;;;;;;;2202697;59;2086;-23
2023/11/25 08:55:25;;;;;;;;;;;;;;;;;;2202673;67;2240;-23
2023/11/25 08:57:55;;;;;;;;;;;;;;;;;;2200925;67;2718;-23
2023/11/25 09:00:29;;;;;;;;;;;;;;;;;;2203270;59;2198;-23
2023/11/25 09:03:00;;;;;;;;;;;;;;;;;;2200164;59;3616;-23
2023/11/25 09:05:31;;;;;;;;;;;;;;;;;;2203895;66;1988;-23
2023/11/25 09:08:05;;;;;;;;;;;;;;;;;;2203605;67;1783;-23
2023/11/25 09:10:35;;;;;;;;;;;;;;;;;;2203523;67;2657;-22
2023/11/25 09:13:05;;;;;;;;;;;;;;;;;;2204384;67;2538;-23
2023/11/25 09:15:36;;;;;;;;;;;;;;;;;;2202186;59;1859;-22
2023/11/25 09:18:06;;;;;;;;;;;;;;;;;;2200827;67;2222;-22
2023/11/25 09:20:37;;;;;;;;;;;;;;;;;;2204574;59;1742;-22
2023/11/25 09:23:07;;;;;;;;;;;;;;;;;;2201857;67;2010;-22
2023/11/25 09:25:37;;;;;;;;;;;;;;;;;;2204480;67;1939;-22
2023/11/25 09:28:08;;;;;;;;;;;;;;;;;;2201135;59;2087;-22
2023/11/25 09:30:39;;;;;;;;;;;;;;;;;;2200884;67;2260;-22
2023/11/25 09:33:10;;;;;;;;;;;;;;;;;;2201381;67;1702;-22
2023/11/25 09:35:40;;;;;;;;;;;;;;;;;;2204791;67;2388;-22
2023/11/25 09:38:10;;;;;;;;;;;;;;;;;;2204391;67;2253;-22
2023/11/25 09:40:40;;;;;;;;;;;;;;;;;;2204690;59;2014;-22
2023/11/25 09:43:12;;;;;;;;;;;;;;;;;;2202986;60;2391;-22
2023/11/25 09:45:42;;;;;;;;;;;;;;;;;;2200373;59;2816;-22
2023/11/25 09:48:12;;;;;;;;;;;;;;;;;;2203474;59;2591;-20
2023/11/25 09:50:43;;;;;;;;;;;;;;;;;;2200340;59;1909;-20
2023/11/25 09:53:18;;;;;;;;;;;;;;;;;;2201677;67;2379;-20
2023/11/25 09:55:59;;;;;;;;;;;;;;;;;;2205570;67;3170;-20
2023/11/25 09:58:31;;;;;;;;;;;;;;;;;;2204367;59;3065;-20
2023/11/25 10:01:05;;;;;;;;;;;;;;;;;;2206584;67;2118;-20
2023/11/25 10:03:38;;;;;;;;;;;;;;;;;;2205511;59;2297;-20
2023/11/25 10:06:09;;;;;;;;;;;;;;;;;;2201954;59;2366;-20
2023/11/25 10:08:39;;;;;;;;;;;;;;;;;;2199219;59;2952;-20
2023/11/25 10:11:09;;;;;;;;;;;;;;;;;;2204860;67;2362;-20
2023/11/25 10:13:42;;;;;;;;;;;;;;;;;;2200907;61;1931;-20
2023/11/25 10:16:13;;;;;;;;;;;;;;;;;;2204108;67;2372;-20
2023/11/25 10:18:44;;;;;;;;;;;;;;;;;;2203877;59;1879;-20
2023/11/25 10:21:14;;;;;;;;;;;;;;;;;;2203846;67;1860;-20
2023/11/25 10:23:44;;;;;;;;;;;;;;;;;;2204230;67;2293;-20
2023/11/25 10:26:17;;;;;;;;;;;;;;;;;;2200447;67;3168;-21
2023/11/25 10:28:48;;;;;;;;;;;;;;;;;;2200522;59;2643;-21
2023/11/25 10:31:18;;;;;;;;;;;;;;;;;;2199890;67;1989;-21
2023/11/25 10:33:55;;;;;;;;;;;;;;;;;;2204234;59;2232;-21
2023/11/25 10:36:25;;;;;;;;;;;;;;;;;;2199749;67;2306;-21
2023/11/25 10:38:56;;;;;;;;;;;;;;;;;;2203604;67;2244;-21
2023/11/25 10:41:26;;;;;;;;;;;;;;;;;;2204263;59;2590;-21
2023/11/25 10:43:57;;;;;;;;;;;;;;;;;;2200322;59;2333;-21
2023/11/25 10:46:36;;;;;;;;;;;;;;;;;;2203525;59;2532;-21
2023/11/25 10:49:07;;;;;;;;;;;;;;;;;;2204316;67;1883;-21
2023/11/25 10:51:38;;;;;;;;;;;;;;;;;;2203173;59;3422;-21
2023/11/25 10:54:09;;;;;;;;;;;;;;;;;;2199398;67;1856;-21
2023/11/25 10:56:40;;;;;;;;;;;;;;;;;;2203949;58;1474;-21
2023/11/25 10:59:12;;;;;;;;;;;;;;;;;;2200720;59;2325;-21
2023/11/25 11:01:44;;;;;;;;;;;;;;;;;;2200936;59;2585;-21
2023/11/25 11:04:36;;;;;;;;;;;;;;;;;;2203367;67;2884;-21
2023/11/25 11:07:08;;;;;;;;;;;;;;;;;;2203532;59;2048;-21
2023/11/25 11:09:38;;;;;;;;;;;;;;;;;;2201601;59;2634;-21
2023/11/25 11:12:19;;;;;;;;;;;;;;;;;;2203688;58;2269;-21
2023/11/25 11:15:13;;;;;;;;;;;;;;;;;;2203587;59;2337;-21
2023/11/25 11:18:06;;;;;;;;;;;;;;;;;;2204052;67;2744;-21
2023/11/25 11:20:41;;;;;;;;;;;;;;;;;;2203749;67;2279;-21
2023/11/25 11:23:11;;;;;;;;;;;;;;;;;;2200659;59;1988;-21
2023/11/25 11:25:55;;;;;;;;;;;;;;;;;;2204309;59;1998;-21
2023/11/25 11:28:33;;;;;;;;;;;;;;;;;;2201077;59;2298;-22
2023/11/25 11:31:23;;;;;;;;;;;;;;;;;;2204554;59;2269;-21
2023/11/25 11:33:53;;;;;;;;;;;;;;;;;;2203689;59;2373;-21
2023/11/25 11:36:30;;;;;;;;;;;;;;;;;;2203758;59;1624;-21
2023/11/25 11:39:01;;;;;;;;;;;;;;;;;;2200391;67;1281;-21
2023/11/25 11:41:31;;;;;;;;;;;;;;;;;;2200268;59;2126;-21
2023/11/25 11:44:03;;;;;;;;;;;;;;;;;;2204203;59;2211;-21
2023/11/25 11:46:38;;;;;;;;;;;;;;;;;;2204137;59;1325;-21
2023/11/25 11:49:10;;;;;;;;;;;;;;;;;;2203235;59;2204;-21
2023/11/25 11:51:58;;;;;;;;;;;;;;;;;;2204008;59;1330;-21
2023/11/25 11:54:29;;;;;;;;;;;;;;;;;;2203236;59;1976;-21
2023/11/25 11:57:02;;;;;;;;;;;;;;;;;;2204055;67;1496;-21
2023/11/25 11:59:51;;;;;;;;;;;;;;;;;;2203180;67;1464;-21
2023/11/25 12:02:22;;;;;;;;;;;;;;;;;;2203713;59;2397;-21
2023/11/25 12:04:52;;;;;;;;;;;;;;;;;;2201402;67;1947;-21
2023/11/25 12:07:22;;;;;;;;;;;;;;;;;;2203494;59;1267;-21
2023/11/25 12:09:54;;;;;;;;;;;;;;;;;;2200925;67;2614;-21
2023/11/25 12:12:24;;;;;;;;;;;;;;;;;;2202328;59;2556;-21
2023/11/25 12:14:54;;;;;;;;;;;;;;;;;;2200530;59;2425;-21
2023/11/25 12:17:25;;;;;;;;;;;;;;;;;;2200381;59;2219;-21
2023/11/25 12:19:55;;;;;;;;;;;;;;;;;;2200486;62;2017;-21
2023/11/25 12:22:25;;;;;;;;;;;;;;;;;;2200795;67;2922;-21
2023/11/25 12:24:55;;;;;;;;;;;;;;;;;;2204214;67;1996;-21
2023/11/25 12:27:28;;;;;;;;;;;;;;;;;;2202874;59;1887;-21
2023/11/25 12:29:58;;;;;;;;;;;;;;;;;;2204222;59;2568;-21
2023/11/25 12:32:28;;;;;;;;;;;;;;;;;;2203662;59;2031;-21
2023/11/25 12:34:58;;;;;;;;;;;;;;;;;;2204157;59;2458;-21
2023/11/25 12:37:29;;;;;;;;;;;;;;;;;;2200154;67;2279;-21
2023/11/25 12:40:13;;;;;;;;;;;;;;;;;;2200541;59;2660;-20
2023/11/25 12:42:44;;;;;;;;;;;;;;;;;;2204151;67;1859;-20
2023/11/25 12:45:30;;;;;;;;;;;;;;;;;;2201514;60;2339;-20
2023/11/25 12:48:05;;;;;;;;;;;;;;;;;;2200784;67;2362;-20
2023/11/25 12:50:55;;;;;;;;;;;;;;;;;;2203787;59;2379;-20
2023/11/25 12:53:26;;;;;;;;;;;;;;;;;;2200722;59;3344;-20
2023/11/25 12:55:57;;;;;;;;;;;;;;;;;;2201121;59;2504;-20
2023/11/25 12:58:27;;;;;;;;;;;;;;;;;;2203021;59;2567;-20
2023/11/25 13:00:57;;;;;;;;;;;;;;;;;;2204569;67;2901;-20
2023/11/25 13:03:31;;;;;;;;;;;;;;;;;;2200912;59;2474;-20
2023/11/25 13:06:05;;;;;;;;;;;;;;;;;;2199445;59;1909;-20
2023/11/25 13:08:36;;;;;;;;;;;;;;;;;;2198693;59;1796;-20
2023/11/25 13:11:08;;;;;;;;;;;;;;;;;;2204419;59;2153;-20
2023/11/25 13:13:39;;;;;;;;;;;;;;;;;;2199513;67;2380;-20
2023/11/25 13:16:10;;;;;;;;;;;;;;;;;;2201610;59;2107;-20
2023/11/25 13:18:47;;;;;;;;;;;;;;;;;;2203087;59;2597;-20
2023/11/25 13:21:18;;;;;;;;;;;;;;;;;;2204685;67;1873;-20
2023/11/25 13:23:50;;;;;;;;;;;;;;;;;;2201397;59;2111;-20
2023/11/25 13:26:20;;;;;;;;;;;;;;;;;;2203872;59;2057;-20
2023/11/25 13:28:50;;;;;;;;;;;;;;;;;;2204620;59;2378;-20
2023/11/25 13:31:21;;;;;;;;;;;;;;;;;;2203720;59;2375;-20
2023/11/25 13:33:52;;;;;;;;;;;;;;;;;;2201197;59;2488;-20
2023/11/25 13:36:23;;;;;;;;;;;;;;;;;;2204356;67;1868;-20
2023/11/25 13:38:53;;;;;;;;;;;;;;;;;;2204508;59;2056;-20
2023/11/25 13:41:23;;;;;;;;;;;;;;;;;;2202395;59;3583;-20
2023/11/25 13:43:54;;;;;;;;;;;;;;;;;;2202162;59;2239;-20
2023/11/25 13:46:25;;;;;;;;;;;;;;;;;;2204447;59;2157;-20
2023/11/25 13:48:55;;;;;;;;;;;;;;;;;;2204763;60;1954;-20
2023/11/25 13:51:25;;;;;;;;;;;;;;;;;;2207150;53;2153;-22
2023/11/25 13:53:57;;;;;;;;;;;;;;;;;;2209952;66;2022;-23
2023/11/25 13:56:27;;;;;;;;;;;;;;;;;;2207363;59;2180;-23
2023/11/25 13:58:57;;;;;;;;;;;;;;;;;;2210882;58;2453;-23
2023/11/25 14:01:28;;;;;;;;;;;;;;;;;;2210902;58;2169;-23
2023/11/25 14:04:01;;;;;;;;;;;;;;;;;;2212653;58;2127;-24
2023/11/25 14:06:31;;;;;;;;;;;;;;;;;;2207814;59;1985;-24
2023/11/25 14:09:03;;;;;;;;;;;;;;;;;;2211340;58;1959;-24
2023/11/25 14:11:33;;;;;;;;;;;;;;;;;;2211031;66;2330;-24
2023/11/25 14:14:03;;;;;;;;;;;;;;;;;;2211124;58;2548;-24
2023/11/25 14:16:34;;;;;;;;;;;;;;;;;;2214046;58;2667;-24
2023/11/25 14:19:04;;;;;;;;;;;;;;;;;;2211942;66;1665;-24
2023/11/25 14:21:34;;;;;;;;;;;;;;;;;;2211361;58;2415;-24
2023/11/25 14:24:06;;;;;;;;;;;;;;;;;;2209151;59;2130;-24
2023/11/25 14:26:37;;;;;;;;;;;;;;;;;;2211156;58;1623;-23
2023/11/25 14:29:07;;;;;;;;;;;;;;;;;;2207591;58;2163;-25
2023/11/25 14:31:37;;;;;;;;;;;;;;;;;;2211861;58;2530;-25
2023/11/25 14:34:09;;;;;;;;;;;;;;;;;;2211322;58;2599;-23
2023/11/25 14:36:39;;;;;;;;;;;;;;;;;;2205282;58;2417;-23
2023/11/25 14:39:09;;;;;;;;;;;;;;;;;;2208086;59;2342;-23
2023/11/25 14:41:40;;;;;;;;;;;;;;;;;;2211750;58;2319;-25
2023/11/25 14:44:10;;;;;;;;;;;;;;;;;;2210572;58;2336;-25
2023/11/25 14:46:41;;;;;;;;;;;;;;;;;;2202173;59;2585;-25
2023/11/25 14:49:11;;;;;;;;;;;;;;;;;;2211498;58;2688;-25
2023/11/25 14:51:41;;;;;;;;;;;;;;;;;;2208010;59;2356;-25
2023/11/25 14:54:12;;;;;;;;;;;;;;;;;;2210564;58;3011;-26
2023/11/25 14:56:43;;;;;;;;;;;;;;;;;;2210335;66;1994;-27
2023/11/25 14:59:14;;;;;;;;;;;;;;;;;;2210994;58;2425;-27
2023/11/25 15:01:48;;;;;;;;;;;;;;;;;;2211303;66;2627;-27
2023/11/25 15:04:19;;;;;;;;;;;;;;;;;;2212652;58;2647;-27
2023/11/25 15:06:49;;;;;;;;;;;;;;;;;;2210483;58;2158;-27
2023/11/25 15:09:20;;;;;;;;;;;;;;;;;;2211762;59;2553;-27
2023/11/25 15:11:51;;;;;;;;;;;;;;;;;;2210766;59;2108;-27
2023/11/25 15:14:21;;;;;;;;;;;;;;;;;;2210683;58;2683;-27
2023/11/25 15:16:52;;;;;;;;;;;;;;;;;;2207552;66;1991;-27
2023/11/25 15:19:23;;;;;;;;;;;;;;;;;;2212803;58;2133;-27
2023/11/25 15:21:53;;;;;;;;;;;;;;;;;;2211727;66;2215;-27
2023/11/25 15:24:24;;;;;;;;;;;;;;;;;;2208440;66;2652;-27
2023/11/25 15:26:54;;;;;;;;;;;;;;;;;;2211594;59;2379;-27
2023/11/25 15:29:25;;;;;;;;;;;;;;;;;;2211002;58;2260;-27
2023/11/25 15:31:55;;;;;;;;;;;;;;;;;;2206755;58;2448;-27
2023/11/25 15:34:25;;;;;;;;;;;;;;;;;;2206016;59;2525;-26
2023/11/25 15:36:55;;;;;;;;;;;;;;;;;;2206362;59;2817;-27
2023/11/25 15:39:27;;;;;;;;;;;;;;;;;;2211527;58;2329;-26
2023/11/25 15:41:59;;;;;;;;;;;;;;;;;;2209191;58;2390;-26
2023/11/25 15:44:29;;;;;;;;;;;;;;;;;;2206822;59;2377;-26
2023/11/25 15:47:01;;;;;;;;;;;;;;;;;;2212899;58;3721;-27
2023/11/25 15:49:31;;;;;;;;;;;;;;;;;;2204869;58;2140;-26
2023/11/25 15:52:02;;;;;;;;;;;;;;;;;;2212943;58;2152;-26
2023/11/25 15:54:32;;;;;;;;;;;;;;;;;;2211606;58;2200;-26
2023/11/25 15:57:03;;;;;;;;;;;;;;;;;;2211496;58;2404;-26
2023/11/25 15:59:35;;;;;;;;;;;;;;;;;;2212590;58;1943;-26
2023/11/25 16:02:05;;;;;;;;;;;;;;;;;;2211080;59;2371;-26
2023/11/25 16:04:36;;;;;;;;;;;;;;;;;;2207744;58;2487;-26
2023/11/25 16:07:10;;;;;;;;;;;;;;;;;;2212879;59;2606;-26
2023/11/25 16:09:41;;;;;;;;;;;;;;;;;;2209008;66;2677;-26
2023/11/25 16:12:12;;;;;;;;;;;;;;;;;;2213327;59;1819;-26
2023/11/25 16:14:43;;;;;;;;;;;;;;;;;;2211539;59;2279;-26
2023/11/25 16:17:13;;;;;;;;;;;;;;;;;;2213460;58;2380;-26
2023/11/25 16:19:44;;;;;;;;;;;;;;;;;;2210028;58;2137;-25
2023/11/25 16:22:15;;;;;;;;;;;;;;;;;;2213474;58;3071;-25
2023/11/25 16:24:45;;;;;;;;;;;;;;;;;;2213027;58;2388;-25
2023/11/25 16:27:18;;;;;;;;;;;;;;;;;;2212465;58;3122;-25
2023/11/25 16:29:49;;;;;;;;;;;;;;;;;;2213082;58;2928;-25
2023/11/25 16:32:19;;;;;;;;;;;;;;;;;;2213945;58;2261;-25
2023/11/25 16:34:50;;;;;;;;;;;;;;;;;;2213358;58;1994;-25
2023/11/25 16:37:22;;;;;;;;;;;;;;;;;;2209636;58;2245;-25
2023/11/25 16:39:52;;;;;;;;;;;;;;;;;;2214030;58;1902;-25
2023/11/25 16:42:22;;;;;;;;;;;;;;;;;;2213599;58;2673;-25
2023/11/25 16:44:53;;;;;;;;;;;;;;;;;;2211890;58;2776;-25
2023/11/25 16:47:23;;;;;;;;;;;;;;;;;;2209477;59;1618;-25
2023/11/25 16:49:55;;;;;;;;;;;;;;;;;;2211744;58;2106;-25
2023/11/25 16:52:25;;;;;;;;;;;;;;;;;;2211064;58;1352;-25
2023/11/25 16:54:56;;;;;;;;;;;;;;;;;;2209410;58;1496;-25
2023/11/25 16:57:28;;;;;;;;;;;;;;;;;;2211181;58;1887;-25
2023/11/25 16:59:58;;;;;;;;;;;;;;;;;;2207048;58;2206;-25
2023/11/25 17:02:29;;;;;;;;;;;;;;;;;;2209731;59;2426;-25
2023/11/25 17:04:59;;;;;;;;;;;;;;;;;;2209334;58;1941;-25
2023/11/25 17:07:32;;;;;;;;;;;;;;;;;;2211770;66;1408;-25
2023/11/25 17:10:04;;;;;;;;;;;;;;;;;;2208551;66;1909;-25
2023/11/25 17:12:34;;;;;;;;;;;;;;;;;;2210917;66;1707;-25
2023/11/25 17:15:05;;;;;;;;;;;;;;;;;;2205426;59;2420;-25
2023/11/25 17:17:38;;;;;;;;;;;;;;;;;;2206996;66;2361;-25
2023/11/25 17:20:10;;;;;;;;;;;;;;;;;;2208971;59;3209;-25
2023/11/25 17:22:41;;;;;;;;;;;;;;;;;;2207955;59;2620;-25
2023/11/25 17:25:12;;;;;;;;;;;;;;;;;;2205992;59;2259;-25
2023/11/25 17:27:42;;;;;;;;;;;;;;;;;;2210125;58;2327;-25
2023/11/25 17:30:12;;;;;;;;;;;;;;;;;;2211673;59;2313;-25
2023/11/25 17:32:42;;;;;;;;;;;;;;;;;;2211621;58;1988;-25
2023/11/25 17:35:13;;;;;;;;;;;;;;;;;;2210496;66;1857;-25